Latest Coastal Weather Observations for Strahan

IDT60701

Issued at 9:21 am EDT Monday 22 December 2014 (issued every 10 minutes, with the page automatically refreshed every 10 minutes)

About coastal observations | Map of coastal stations | Coastal observations for TAS | Marine services | Other Formats
Station Details ID: 097072 Name: STRAHAN AERODROME Lat: -42.16 Lon: 145.29 Height: 21.0 m
Data from the previous 72 hours. | See also: Recent months at Strahan
Date/Time
EDT
Temp

°C
Wind Pressure Rain
since 9am
mm
Weather Cloud Vis
km
Sea
Height
m
Swell
Dir
 
Speed
knots
Gust
knots
hPa Trend Height
m
Period
s
Dir
22/09:00am 15.9 SE 6 9 1015.1 - 0.8 - Mostly clear 10 - - - -
22/08:30am 14.8 SSE 7 9 1015.0 - 0.8 - Partly cloudy 10 - - - -
22/08:00am 14.5 ESE 3 5 1015.1 - 0.8 - - 10 - - - -
22/07:30am 13.0 ENE 3 4 1014.8 - 0.8 - - 10 - - - -
22/07:00am 11.1 NE 4 5 1014.7 - 0.8 - - 10 - - - -
22/06:30am 9.6 NNE 4 6 1014.6 - 0.8 - - 10 - - - -
22/06:00am 8.9 NE 5 5 1014.2 - 0.8 - - 10 - - - -
22/05:30am 9.1 NE 5 7 1014.2 - 0.8 - - 10 - - - -
22/05:00am 8.9 NE 3 5 1014.2 - 0.8 - - 10 - - - -
22/04:30am 8.9 NNE 5 6 1014.1 - 0.8 - - 10 - - - -
22/04:00am 9.4 NNE 3 4 1014.0 - 0.8 - - 10 - - - -
22/03:54am 9.7 NE 3 4 1014.0 - 0.8 - - 10 - - - -
22/03:30am 9.1 NNE 3 4 1014.3 - 0.8 - - 1 - - - -
22/03:13am 9.4 E 4 5 1014.2 - 0.8 - - 4 - - - -
22/03:00am 10.1 NE 3 5 1014.3 - 0.8 - Mostly clear 10 - - - -
22/02:30am 10.2 NNE 3 5 1014.5 - 0.8 - - 10 - - - -
22/02:00am 10.6 NNE 5 6 1014.8 - 0.8 - - 10 - - - -
22/01:30am 11.3 NNE 6 8 1014.9 - 0.8 - Partly cloudy 10 - - - -
22/01:00am 11.5 NNE 5 6 1015.0 - 0.8 - Cloudy 10 - - - -
22/12:30am 11.9 NNE 5 6 1015.0 - 0.8 - Partly cloudy 10 - - - -
22/12:00am 12.1 NE 6 7 1014.9 - 0.8 - Mostly clear 10 - - - -
 
Date/Time
EDT
Temp

°C
Wind Pressure Rain
since 9am
mm
Weather Cloud Vis
km
Sea
Height
m
Swell
Dir
 
Speed
knots
Gust
knots
hPa Trend Height
m
Period
s
Dir
21/11:30pm 12.5 NNE 4 5 1015.1 - 0.8 - Partly cloudy 10 - - - -
21/11:00pm 12.7 N 4 5 1015.2 - 0.8 - Partly cloudy 10 - - - -
21/10:30pm 13.3 NNE 3 4 1015.2 - 0.6 - Partly cloudy 10 - - - -
21/10:00pm 13.4 NNE 1 3 1015.0 - 0.6 - Cloudy 10 - - - -
21/09:30pm 13.7 NW 3 3 1014.8 - 0.6 - Cloudy 10 - - - -
21/09:00pm 13.7 NNW 3 4 1014.7 - 0.6 - Mostly cloudy 10 - - - -
21/08:30pm 13.9 NE 4 5 1014.3 - 0.6 - Partly cloudy 10 - - - -
21/08:14pm 14.0 N 3 5 1014.1 - 0.6 - Partly cloudy 10 - - - -
21/08:00pm 13.9 WNW 3 4 1014.2 - 0.6 - Partly cloudy 10 - - - -
21/07:57pm 13.8 WNW 3 6 1014.2 - 0.6 - Partly cloudy 10 - - - -
21/07:30pm 13.8 W 9 13 1014.2 - 0.6 - Partly cloudy 3 - - - -
21/07:20pm 14.2 WSW 11 15 1014.1 - 0.6 - Partly cloudy 4 - - - -
21/07:15pm 14.3 WNW 11 15 1014.1 - 0.6 - Partly cloudy 5 - - - -
21/07:00pm 16.0 NW 11 13 1013.9 - 0.0 - Partly cloudy 10 - - - -
21/06:30pm 16.5 NW 10 14 1013.9 - 0.0 - Partly cloudy 10 - - - -
21/06:00pm 16.6 NNW 13 17 1013.7 - 0.0 - Cloudy 10 - - - -
21/05:30pm 16.9 NW 15 18 1014.0 - 0.0 - Cloudy 10 - - - -
21/05:00pm 16.6 NW 14 18 1014.2 - 0.0 - Partly cloudy 10 - - - -
21/04:30pm 17.0 WNW 18 23 1014.1 - 0.0 - Partly cloudy 8 - - - -
21/04:00pm 17.0 NW 17 22 1014.0 - 0.0 - Partly cloudy 10 - - - -
21/03:30pm 16.5 NW 18 25 1014.2 - 0.0 - Partly cloudy 8 - - - -
21/03:00pm 16.6 WNW 21 30 1013.8 - 0.0 - Partly cloudy 10 - - - -
21/02:41pm 17.1 WNW 17 27 1013.6 - 0.0 - Partly cloudy 10 - - - -
21/02:30pm 17.1 WNW 16 22 1013.5 - 0.0 - Partly cloudy 10 - - - -
21/02:16pm 17.1 WNW 20 30 1013.1 - 0.0 - Partly cloudy 10 - - - -
21/02:00pm 18.0 WNW 19 28 1012.9 - 0.0 - Partly cloudy 10 - - - -
21/01:51pm 17.6 WNW 16 26 1013.1 - 0.0 - Partly cloudy 10 - - - -
21/01:30pm 18.2 WNW 17 24 1013.3 - 0.0 - Partly cloudy 10 - - - -
21/01:00pm 17.6 NW 17 23 1012.9 - 0.0 - - 10 - - - -
21/12:30pm 17.8 NW 16 21 1013.0 - 0.0 - - 10 - - - -
21/12:00pm 17.5 NW 15 20 1013.2 - 0.0 - - 10 - - - -
21/11:30am 17.4 NNW 16 20 1013.6 - 0.0 - - 10 - - - -
21/11:00am 17.7 NW 12 16 1013.8 - 0.0 - - 10 - - - -
21/10:30am 16.5 NW 13 17 1014.5 - 0.0 - - 10 - - - -
21/10:00am 17.5 NW 12 16 1014.8 - 0.0 - - 10 - - - -
21/09:30am 16.4 NW 9 12 1015.0 - 0.0 - - 10 - - - -
21/09:00am 16.4 NW 7 12 1014.8 - 2.2 - - 10 - - - -
21/08:30am 14.9 N 6 8 1014.5 - 2.2 - - 10 - - - -
21/08:00am 13.6 N 7 9 1014.4 - 2.2 - - 10 - - - -
21/07:30am 12.0 NNE 7 10 1013.9 - 2.2 - - 10 - - - -
21/07:00am 10.3 NNE 7 9 1014.1 - 2.2 - - 10 - - - -
21/06:30am 9.2 NE 8 11 1014.4 - 2.2 - - 10 - - - -
21/06:00am 8.3 NNE 7 10 1014.4 - 2.2 - - 10 - - - -
21/05:30am 7.7 NE 4 6 1014.7 - 2.2 - - 10 - - - -
21/05:00am 8.1 NNE 4 6 1016.0 - 2.2 - - 10 - - - -
21/04:30am 7.9 N 5 7 1014.9 - 2.2 - - 10 - - - -
21/04:00am 8.3 NE 8 10 1014.4 - 2.2 - - 10 - - - -
21/03:30am 8.6 NNE 7 9 1014.4 - 2.2 - - 10 - - - -
21/03:00am 8.1 NNE 5 6 1014.3 - 2.2 - - 10 - - - -
21/02:30am 8.1 N 4 5 1014.5 - 2.2 - - 10 - - - -
21/02:00am 8.6 NNE 5 6 1014.6 - 2.2 - - 10 - - - -
21/01:30am 9.1 NNE 6 7 1014.8 - 2.2 - - 10 - - - -
21/01:00am 9.3 NNE 6 6 1015.4 - 2.2 - - 10 - - - -
21/12:30am 9.6 NE 5 6 1015.9 - 2.2 - - 10 - - - -
21/12:00am 9.5 NNE 5 6 1016.2 - 2.2 - - 10 - - - -
 
Date/Time
EDT
Temp

°C
Wind Pressure Rain
since 9am
mm
Weather Cloud Vis
km
Sea
Height
m
Swell
Dir
 
Speed
knots
Gust
knots
hPa Trend Height
m
Period
s
Dir
20/11:30pm 9.9 NNE 5 6 1016.3 - 2.2 - - 10 - - - -
20/11:00pm 10.2 NNE 5 6 1016.3 - 2.2 - - 10 - - - -
20/10:30pm 9.8 CALM 0 2 1016.4 - 2.2 - - 10 - - - -
20/10:00pm 10.0 CALM 0 2 1016.3 - 2.2 - - 10 - - - -
20/09:30pm 11.0 SW 3 4 1016.2 - 2.2 - - 10 - - - -
20/09:00pm 12.3 WSW 4 5 1016.0 - 2.2 - - 10 - - - -
20/08:30pm 14.1 W 4 5 1016.2 - 2.2 - - 10 - - - -
20/08:00pm 14.9 W 6 8 1016.3 - 2.2 - - 10 - - - -
20/07:30pm 15.8 W 7 9 1016.2 - 2.2 - Partly cloudy 10 - - - -
20/07:00pm 15.4 W 7 9 1016.1 - 2.2 - Partly cloudy 10 - - - -
20/06:30pm 15.1 W 8 10 1016.0 - 2.2 - Partly cloudy 10 - - - -
20/06:00pm 16.8 W 8 12 1015.9 - 2.2 - - 10 - - - -
20/05:30pm 16.9 W 9 12 1015.9 - 2.2 - - 10 - - - -
20/05:00pm 17.3 W 9 13 1016.0 - 2.2 - Partly cloudy 10 - - - -
20/04:30pm 16.9 W 10 14 1016.0 - 2.2 - Partly cloudy 10 - - - -
20/04:00pm 17.3 WNW 10 13 1016.1 - 2.2 - Partly cloudy 10 - - - -
20/03:30pm 17.2 W 10 15 1016.1 - 2.2 - Partly cloudy 10 - - - -
20/03:00pm 17.5 W 10 13 1016.2 - 2.2 - Partly cloudy 10 - - - -
20/02:30pm 17.3 W 9 13 1016.0 - 2.2 - Partly cloudy 10 - - - -
20/02:00pm 16.3 W 10 14 1016.0 - 2.2 - Partly cloudy 10 - - - -
20/01:30pm 16.6 W 10 14 1015.9 - 2.2 - Partly cloudy 10 - - - -
20/01:00pm 16.0 W 9 11 1015.8 - 2.2 - Partly cloudy 10 - - - -
20/12:36pm 14.0 WSW 10 14 1015.9 - 2.2 - Partly cloudy 10 - - - -
20/12:31pm 13.7 WSW 11 14 1015.9 - 2.2 - Partly cloudy 10 - - - -
20/12:30pm 13.7 WSW 11 14 1015.9 - 2.2 - Partly cloudy 10 - - - -
20/12:12pm 13.5 WSW 12 16 1015.9 - 2.2 - Partly cloudy 5 - - - -
20/12:07pm 14.2 SW 11 14 1015.7 - 2.0 - Partly cloudy 10 - - - -
20/12:00pm 14.4 WSW 10 14 1015.7 - 2.0 - Cloudy 8 - - - -
20/11:44am 14.2 W 13 17 1015.5 - 2.0 - Partly cloudy 5 - - - -
20/11:30am 14.5 W 10 16 1015.4 - 2.0 - Partly cloudy 10 - - - -
20/11:28am 14.6 W 10 15 1015.3 - 2.0 - Partly cloudy 10 - - - -
20/11:21am 15.0 W 10 14 1015.3 - 2.0 - Partly cloudy 10 - - - -
20/11:00am 13.5 W 13 21 1015.2 - 2.0 - Partly cloudy 3 - - - -
20/10:55am 13.9 W 11 21 1015.2 - 1.2 - Partly cloudy 4 - - - -
20/10:40am 15.4 W 8 11 1015.0 - 0.2 - Partly cloudy 10 - - - -
20/10:30am 14.6 W 11 14 1015.0 - 0.2 - Partly cloudy 5 - - - -
20/10:00am 16.7 W 11 15 1014.9 - 0.0 - Partly cloudy 10 - - - -
20/09:30am 15.3 W 11 16 1014.7 - 0.0 - Partly cloudy 10 - - - -
20/09:00am 14.6 W 13 18 1014.4 - 5.0 - Mostly cloudy 10 - - - -
20/08:54am 14.4 WNW 13 17 1014.4 - 5.0 - Partly cloudy 10 - - - -
20/08:39am 14.0 WNW 14 18 1014.2 - 5.0 - Partly cloudy 4 - - - -
20/08:32am 14.0 W 13 18 1014.1 - 5.0 - Partly cloudy 5 - - - -
20/08:30am 14.1 W 13 18 1014.1 - 5.0 - Partly cloudy 7 - - - -
20/08:19am 14.7 W 11 15 1013.9 - 5.0 - Partly cloudy 10 - - - -
20/08:09am 14.5 W 11 15 1013.8 - 5.0 - Partly cloudy 10 - - - -
20/08:00am 14.6 W 12 15 1013.7 - 5.0 - Partly cloudy 10 - - - -
20/07:43am 14.5 W 11 14 1013.5 - 5.0 - Partly cloudy 10 - - - -
20/07:40am 14.5 W 11 14 1013.4 - 5.0 - Partly cloudy 10 - - - -
20/07:30am 14.4 W 11 15 1013.3 - 5.0 - Partly cloudy 10 - - - -
20/07:23am 14.2 W 11 15 1013.3 - 5.0 - Partly cloudy 7 - - - -
20/07:18am 14.2 W 11 15 1013.2 - 5.0 - Partly cloudy 8 - - - -
20/07:01am 14.2 W 10 14 1013.0 - 5.0 - Partly cloudy 10 - - - -
20/07:00am 14.1 W 10 14 1013.0 - 5.0 - Partly cloudy 10 - - - -
20/06:54am 13.9 W 10 14 1013.0 - 5.0 - Partly cloudy 10 - - - -
20/06:36am 13.7 W 12 19 1012.8 - 5.0 - Partly cloudy 9 - - - -
20/06:30am 13.6 WNW 12 16 1012.8 - 5.0 - Partly cloudy 9 - - - -
20/06:00am 13.4 W 11 15 1012.6 - 4.8 Recent precip. Cloudy 4 - - - -
20/05:30am 13.6 W 12 16 1012.3 - 4.4 - Partly cloudy 5 - - - -
20/05:11am 13.8 WNW 14 19 1012.2 - 4.2 - Partly cloudy 5 - - - -
20/05:00am 13.8 WNW 13 20 1012.2 - 4.2 - Partly cloudy 10 - - - -
20/04:30am 13.7 WNW 14 19 1012.2 - 4.2 - Partly cloudy 10 - - - -
20/04:00am 13.5 WNW 15 19 1012.3 - 4.2 - Partly cloudy 8 - - - -
20/03:53am 13.4 WNW 15 20 1012.3 - 4.2 - Partly cloudy 6 - - - -
20/03:30am 13.2 NW 15 22 1012.4 - 4.0 - Partly cloudy 2 - - - -
20/03:00am 13.1 NW 14 18 1012.7 - 3.6 Rain Cloudy 2 - - - -
20/02:32am 13.0 WNW 13 18 1013.1 - 3.0 - Partly cloudy 3 - - - -
20/02:30am 12.9 WNW 13 18 1013.1 - 3.0 - Partly cloudy 3 - - - -
20/02:21am 13.0 NW 15 25 1013.2 - 3.0 - Partly cloudy 3 - - - -
20/02:17am 13.1 NW 12 25 1013.2 - 3.0 - Partly cloudy 4 - - - -
20/02:13am 13.1 NNW 10 13 1013.3 - 2.8 - Partly cloudy 5 - - - -
20/02:00am 12.9 NNW 10 14 1013.5 - 2.8 - Partly cloudy 8 - - - -
20/01:46am 12.4 NNW 9 11 1013.7 - 2.8 - Partly cloudy 8 - - - -
20/01:30am 12.2 NW 14 21 1013.8 - 2.8 - Partly cloudy 3 - - - -
20/01:00am 12.8 NNW 14 19 1014.1 - 1.6 - Partly cloudy 6 - - - -
20/12:59am 12.8 NNW 14 19 1014.2 - 1.6 - Partly cloudy 6 - - - -
20/12:30am 12.7 NW 13 19 1014.3 - 1.0 - Partly cloudy 5 - - - -
20/12:15am 12.5 NNW 9 12 1014.5 - 1.0 - Partly cloudy 5 - - - -
20/12:12am 12.4 NNW 9 12 1014.6 - 1.0 - Partly cloudy 5 - - - -
20/12:09am 12.4 NNW 9 12 1014.6 - 1.0 - Partly cloudy 5 - - - -
20/12:00am 11.8 N 8 11 1014.8 - 1.0 Recent precip. Cloudy 7 - - - -
 
Date/Time
EDT
Temp

°C
Wind Pressure Rain
since 9am
mm
Weather Cloud Vis
km
Sea
Height
m
Swell
Dir
 
Speed
knots
Gust
knots
hPa Trend Height
m
Period
s
Dir
19/11:58pm 11.6 N 8 11 1014.8 - 1.0 - Partly cloudy 7 - - - -
19/11:44pm 11.6 N 7 11 1015.0 - 1.0 - Partly cloudy 5 - - - -
19/11:30pm 11.6 N 7 11 1015.1 - 0.8 - Partly cloudy 5 - - - -
19/11:17pm 11.9 N 8 10 1015.2 - 0.4 - Partly cloudy 5 - - - -
19/11:01pm 12.1 NNW 9 11 1015.4 - 0.4 - Partly cloudy 8 - - - -
19/11:00pm 12.1 NNW 9 11 1015.4 - 0.4 - Partly cloudy 8 - - - -
19/10:30pm 11.8 NW 14 19 1015.7 - 0.2 - Partly cloudy 5 - - - -
19/10:28pm 11.8 NW 15 19 1015.7 - 0.2 - Partly cloudy 5 - - - -
19/10:00pm 12.2 NNW 11 16 1015.8 - 0.0 - Partly cloudy 9 - - - -
19/09:30pm 12.1 NW 11 15 1015.7 - 0.0 - Partly cloudy 9 - - - -
19/09:00pm 13.1 NW 8 11 1015.8 - 0.0 - Cloudy 10 - - - -
19/08:30pm 13.1 WNW 16 21 1015.9 - 0.0 - Partly cloudy 10 - - - -
19/08:00pm 13.4 NW 11 15 1015.6 - 0.0 - Partly cloudy 10 - - - -
19/07:30pm 13.4 NW 9 13 1015.5 - 0.0 - Partly cloudy 10 - - - -
19/07:00pm 13.6 NNW 8 11 1015.5 - 0.0 - Partly cloudy 10 - - - -
19/06:30pm 13.8 NNW 8 11 1015.4 - 0.0 - Partly cloudy 10 - - - -
19/06:00pm 13.7 NNW 10 14 1015.5 - 0.0 - Mostly cloudy 10 - - - -
19/05:30pm 13.7 NNW 9 13 1015.4 - 0.0 - Partly cloudy 10 - - - -
19/05:00pm 13.2 NW 11 14 1015.7 - 0.0 - Cloudy 10 - - - -
19/04:30pm 13.2 NW 13 17 1015.7 - 0.0 - Partly cloudy 10 - - - -
19/04:00pm 13.4 WNW 9 13 1015.7 - 0.0 - Partly cloudy 10 - - - -
19/03:30pm 14.7 WNW 9 13 1015.5 - 0.0 - Partly cloudy 10 - - - -
19/03:00pm 14.8 WNW 12 16 1015.6 - 0.0 - Cloudy 10 - - - -
19/02:30pm 16.0 WNW 11 17 1015.3 - 0.0 - Partly cloudy 10 - - - -
19/02:00pm 16.4 WNW 10 15 1015.3 - 0.0 - Partly cloudy 10 - - - -
19/01:30pm 15.6 NW 10 16 1015.2 - 0.0 - Partly cloudy 10 - - - -
19/01:00pm 15.5 WNW 9 14 1015.1 - 0.0 - - 10 - - - -
19/12:30pm 16.1 W 9 15 1015.1 - 0.0 - - 10 - - - -
19/12:00pm 16.4 W 11 17 1015.2 - 0.0 - - 10 - - - -
19/11:30am 15.6 W 12 18 1015.0 - 0.0 - - 10 - - - -
19/11:00am 15.4 W 12 17 1014.7 - 0.0 - - 10 - - - -
19/10:30am 15.3 W 11 15 1014.7 - 0.0 - Partly cloudy 10 - - - -
19/10:00am 14.5 WSW 11 15 1014.7 - 0.0 - Partly cloudy 10 - - - -
19/09:30am 12.7 W 10 14 1014.5 - 0.0 - Partly cloudy 10 - - - -

Other Formats:

Comma delimited format used in spreadsheet applications
http://www.bom.gov.au/fwo/IDT60701/IDT60701.94956.axf

JavaScript Object Notation format (JSON) in row-major order
http://www.bom.gov.au/fwo/IDT60701/IDT60701.94956.json